sensor_id;sensor_type;location;lat;lon;timestamp;noise_LAeq;noise_LA_min;noise_LA_max;noise_LA01;noise_LA95
67300;Laerm;57658;51.436;5.980;2023-07-22T00:00:08;54.28;30.37;67.47;;
67300;Laerm;57658;51.436;5.980;2023-07-22T00:00:22;36.61;30.35;48.95;;
67300;Laerm;57658;51.436;5.980;2023-07-22T00:00:32;31.64;30.17;33.06;;
67300;Laerm;57658;51.436;5.980;2023-07-22T00:00:43;31.70;30.38;35.04;;
67300;Laerm;57658;51.436;5.980;2023-07-22T00:00:53;32.17;30.65;33.72;;
67300;Laerm;57658;51.436;5.980;2023-07-22T00:01:03;31.85;30.58;33.39;;
67300;Laerm;57658;51.436;5.980;2023-07-22T00:01:14;31.78;30.58;32.95;;
67300;Laerm;57658;51.436;5.980;2023-07-22T00:01:24;31.87;30.78;33.00;;
67300;Laerm;57658;51.436;5.980;2023-07-22T00:01:34;32.15;30.66;33.35;;
67300;Laerm;57658;51.436;5.980;2023-07-22T00:01:44;31.76;30.13;33.00;;
67300;Laerm;57658;51.436;5.980;2023-07-22T00:01:55;31.85;30.32;33.29;;
67300;Laerm;57658;51.436;5.980;2023-07-22T00:02:05;32.02;30.79;33.51;;
67300;Laerm;57658;51.436;5.980;2023-07-22T00:02:15;32.76;31.07;37.12;;
67300;Laerm;57658;51.436;5.980;2023-07-22T00:02:25;34.33;31.82;43.06;;
67300;Laerm;57658;51.436;5.980;2023-07-22T00:02:36;45.15;32.49;60.68;;
67300;Laerm;57658;51.436;5.980;2023-07-22T00:02:46;33.86;31.58;39.89;;
67300;Laerm;57658;51.436;5.980;2023-07-22T00:02:56;32.71;31.40;38.00;;
67300;Laerm;57658;51.436;5.980;2023-07-22T00:03:07;32.72;31.04;34.43;;
67300;Laerm;57658;51.436;5.980;2023-07-22T00:03:17;32.56;31.23;34.75;;
67300;Laerm;57658;51.436;5.980;2023-07-22T00:03:28;33.02;31.02;36.07;;
67300;Laerm;57658;51.436;5.980;2023-07-22T00:03:39;32.44;30.86;34.92;;
67300;Laerm;57658;51.436;5.980;2023-07-22T00:03:49;33.10;31.56;34.89;;
67300;Laerm;57658;51.436;5.980;2023-07-22T00:03:59;32.38;30.89;35.12;;
67300;Laerm;57658;51.436;5.980;2023-07-22T00:04:09;31.85;30.70;34.74;;
67300;Laerm;57658;51.436;5.980;2023-07-22T00:04:20;31.85;30.67;33.17;;
67300;Laerm;57658;51.436;5.980;2023-07-22T00:04:30;32.11;30.78;33.68;;
67300;Laerm;57658;51.436;5.980;2023-07-22T00:04:40;32.06;30.49;34.15;;
67300;Laerm;57658;51.436;5.980;2023-07-22T00:04:50;31.75;30.38;33.30;;
67300;Laerm;57658;51.436;5.980;2023-07-22T00:05:02;31.69;30.14;33.39;;
67300;Laerm;57658;51.436;5.980;2023-07-22T00:05:14;31.58;30.35;33.16;;
67300;Laerm;57658;51.436;5.980;2023-07-22T00:05:24;31.46;30.05;33.07;;
67300;Laerm;57658;51.436;5.980;2023-07-22T00:05:35;31.38;30.34;32.74;;
67300;Laerm;57658;51.436;5.980;2023-07-22T00:05:45;31.29;29.81;32.36;;
67300;Laerm;57658;51.436;5.980;2023-07-22T00:06:32;31.46;29.92;33.13;;
67300;Laerm;57658;51.436;5.980;2023-07-22T00:06:42;31.45;30.29;32.56;;
67300;Laerm;57658;51.436;5.980;2023-07-22T00:06:52;31.77;30.41;38.86;;
67300;Laerm;57658;51.436;5.980;2023-07-22T00:07:03;31.44;30.11;32.42;;
67300;Laerm;57658;51.436;5.980;2023-07-22T00:07:13;31.50;30.47;32.55;;
67300;Laerm;57658;51.436;5.980;2023-07-22T00:07:23;31.78;30.39;33.20;;
67300;Laerm;57658;51.436;5.980;2023-07-22T00:07:34;31.38;30.10;32.55;;
67300;Laerm;57658;51.436;5.980;2023-07-22T00:07:44;31.09;29.81;32.42;;
67300;Laerm;57658;51.436;5.980;2023-07-22T00:07:54;31.20;30.09;32.43;;
67300;Laerm;57658;51.436;5.980;2023-07-22T00:08:05;33.20;30.26;37.85;;
67300;Laerm;57658;51.436;5.980;2023-07-22T00:08:16;39.72;32.39;48.27;;
67300;Laerm;57658;51.436;5.980;2023-07-22T00:08:26;33.08;30.35;39.25;;
67300;Laerm;57658;51.436;5.980;2023-07-22T00:08:37;31.50;30.35;36.12;;
67300;Laerm;57658;51.436;5.980;2023-07-22T00:08:49;31.32;30.09;32.66;;
67300;Laerm;57658;51.436;5.980;2023-07-22T00:08:59;69.06;30.02;78.23;;
67300;Laerm;57658;51.436;5.980;2023-07-22T00:09:10;73.64;57.58;80.37;;
67300;Laerm;57658;51.436;5.980;2023-07-22T00:09:20;65.93;57.06;74.25;;
67300;Laerm;57658;51.436;5.980;2023-07-22T00:09:32;65.57;56.72;76.17;;
67300;Laerm;57658;51.436;5.980;2023-07-22T00:09:43;65.66;55.12;75.67;;
67300;Laerm;57658;51.436;5.980;2023-07-22T00:09:54;80.04;61.45;84.51;;
67300;Laerm;57658;51.436;5.980;2023-07-22T00:10:04;80.89;78.17;83.98;;
67300;Laerm;57658;51.436;5.980;2023-07-22T00:10:15;76.68;59.74;83.13;;
67300;Laerm;57658;51.436;5.980;2023-07-22T00:10:25;56.24;41.40;71.88;;
67300;Laerm;57658;51.436;5.980;2023-07-22T00:10:40;39.66;36.82;43.44;;
67300;Laerm;57658;51.436;5.980;2023-07-22T00:10:50;37.87;35.89;40.37;;
67300;Laerm;57658;51.436;5.980;2023-07-22T00:11:00;42.95;37.96;46.26;;
67300;Laerm;57658;51.436;5.980;2023-07-22T00:11:11;43.07;39.12;46.59;;
67300;Laerm;57658;51.436;5.980;2023-07-22T00:11:21;39.12;34.63;43.94;;
67300;Laerm;57658;51.436;5.980;2023-07-22T00:11:31;33.51;31.79;36.07;;
67300;Laerm;57658;51.436;5.980;2023-07-22T00:11:42;33.00;31.51;36.04;;
67300;Laerm;57658;51.436;5.980;2023-07-22T00:11:52;32.96;31.72;34.17;;
67300;Laerm;57658;51.436;5.980;2023-07-22T00:12:02;33.43;32.00;35.03;;
67300;Laerm;57658;51.436;5.980;2023-07-22T00:12:13;33.07;31.08;34.64;;
67300;Laerm;57658;51.436;5.980;2023-07-22T00:12:23;32.49;31.18;33.96;;
67300;Laerm;57658;51.436;5.980;2023-07-22T00:12:35;34.09;30.76;37.49;;
67300;Laerm;57658;51.436;5.980;2023-07-22T00:12:46;41.20;35.85;46.20;;
67300;Laerm;57658;51.436;5.980;2023-07-22T00:12:56;56.05;43.37;63.58;;
67300;Laerm;57658;51.436;5.980;2023-07-22T00:13:06;69.01;60.68;76.28;;
67300;Laerm;57658;51.436;5.980;2023-07-22T00:13:17;67.03;50.32;75.59;;
67300;Laerm;57658;51.436;5.980;2023-07-22T00:13:27;55.97;50.22;62.03;;
67300;Laerm;57658;51.436;5.980;2023-07-22T00:13:38;50.79;47.47;53.60;;
67300;Laerm;57658;51.436;5.980;2023-07-22T00:13:48;51.37;49.39;53.31;;
67300;Laerm;57658;51.436;5.980;2023-07-22T00:13:58;51.26;49.36;52.97;;
67300;Laerm;57658;51.436;5.980;2023-07-22T00:14:09;51.45;49.47;53.47;;
67300;Laerm;57658;51.436;5.980;2023-07-22T00:14:19;51.68;49.44;54.67;;
67300;Laerm;57658;51.436;5.980;2023-07-22T00:14:29;52.08;49.16;54.96;;
67300;Laerm;57658;51.436;5.980;2023-07-22T00:14:41;51.56;49.66;54.06;;
67300;Laerm;57658;51.436;5.980;2023-07-22T00:14:51;52.12;49.16;58.09;;
67300;Laerm;57658;51.436;5.980;2023-07-22T00:15:03;52.38;49.19;58.21;;
67300;Laerm;57658;51.436;5.980;2023-07-22T00:15:13;52.60;50.03;57.93;;
67300;Laerm;57658;51.436;5.980;2023-07-22T00:15:24;52.06;49.77;57.06;;
67300;Laerm;57658;51.436;5.980;2023-07-22T00:15:35;51.62;49.22;55.20;;
67300;Laerm;57658;51.436;5.980;2023-07-22T00:15:45;52.14;49.74;56.29;;
67300;Laerm;57658;51.436;5.980;2023-07-22T00:15:56;52.87;50.01;60.31;;
67300;Laerm;57658;51.436;5.980;2023-07-22T00:16:06;57.64;52.02;62.20;;
67300;Laerm;57658;51.436;5.980;2023-07-22T00:16:18;64.15;50.34;69.20;;
67300;Laerm;57658;51.436;5.980;2023-07-22T00:16:28;55.27;49.49;67.74;;
67300;Laerm;57658;51.436;5.980;2023-07-22T00:16:39;53.38;51.00;56.05;;
67300;Laerm;57658;51.436;5.980;2023-07-22T00:16:49;51.73;49.57;53.82;;
67300;Laerm;57658;51.436;5.980;2023-07-22T00:17:00;51.35;49.42;53.71;;
67300;Laerm;57658;51.436;5.980;2023-07-22T00:17:10;51.59;49.56;55.05;;
67300;Laerm;57658;51.436;5.980;2023-07-22T00:17:20;51.68;49.69;55.61;;
67300;Laerm;57658;51.436;5.980;2023-07-22T00:17:31;50.88;48.96;53.06;;
67300;Laerm;57658;51.436;5.980;2023-07-22T00:17:41;51.44;48.80;58.05;;
67300;Laerm;57658;51.436;5.980;2023-07-22T00:17:51;50.33;48.33;52.11;;
67300;Laerm;57658;51.436;5.980;2023-07-22T00:18:02;51.02;48.52;53.30;;
67300;Laerm;57658;51.436;5.980;2023-07-22T00:18:12;51.71;45.32;57.25;;
67300;Laerm;57658;51.436;5.980;2023-07-22T00:18:22;48.84;44.00;56.90;;
67300;Laerm;57658;51.436;5.980;2023-07-22T00:18:33;48.91;43.44;57.38;;
67300;Laerm;57658;51.436;5.980;2023-07-22T00:18:44;53.89;45.10;62.60;;
67300;Laerm;57658;51.436;5.980;2023-07-22T00:18:55;57.11;42.83;63.41;;
67300;Laerm;57658;51.436;5.980;2023-07-22T00:19:05;42.98;37.03;52.68;;
67300;Laerm;57658;51.436;5.980;2023-07-22T00:19:17;38.85;33.29;48.84;;
67300;Laerm;57658;51.436;5.980;2023-07-22T00:19:27;36.46;32.04;47.34;;
67300;Laerm;57658;51.436;5.980;2023-07-22T00:19:37;34.74;31.18;42.07;;
67300;Laerm;57658;51.436;5.980;2023-07-22T00:19:48;36.54;31.48;45.91;;
67300;Laerm;57658;51.436;5.980;2023-07-22T00:19:58;33.23;30.56;41.21;;
67300;Laerm;57658;51.436;5.980;2023-07-22T00:20:08;34.09;31.50;40.32;;
67300;Laerm;57658;51.436;5.980;2023-07-22T00:20:22;33.78;31.35;37.85;;
67300;Laerm;57658;51.436;5.980;2023-07-22T00:20:32;35.27;31.37;44.72;;
67300;Laerm;57658;51.436;5.980;2023-07-22T00:20:42;34.10;31.64;44.25;;
67300;Laerm;57658;51.436;5.980;2023-07-22T00:20:55;35.02;31.13;46.35;;
67300;Laerm;57658;51.436;5.980;2023-07-22T00:21:05;38.12;31.35;49.07;;
67300;Laerm;57658;51.436;5.980;2023-07-22T00:21:16;35.21;31.35;44.15;;
67300;Laerm;57658;51.436;5.980;2023-07-22T00:21:27;33.42;30.78;39.55;;
67300;Laerm;57658;51.436;5.980;2023-07-22T00:21:39;32.77;31.06;36.54;;
67300;Laerm;57658;51.436;5.980;2023-07-22T00:21:49;35.41;31.04;46.60;;
67300;Laerm;57658;51.436;5.980;2023-07-22T00:21:59;33.88;30.87;42.81;;
67300;Laerm;57658;51.436;5.980;2023-07-22T00:22:10;32.87;30.65;38.11;;
67300;Laerm;57658;51.436;5.980;2023-07-22T00:22:20;33.63;31.02;40.51;;
67300;Laerm;57658;51.436;5.980;2023-07-22T00:22:32;33.69;30.37;44.09;;
67300;Laerm;57658;51.436;5.980;2023-07-22T00:22:42;35.63;30.89;47.30;;
67300;Laerm;57658;51.436;5.980;2023-07-22T00:22:53;33.60;30.90;39.23;;
67300;Laerm;57658;51.436;5.980;2023-07-22T00:23:03;35.12;30.88;43.25;;
67300;Laerm;57658;51.436;5.980;2023-07-22T00:23:13;36.65;31.27;48.96;;
67300;Laerm;57658;51.436;5.980;2023-07-22T00:23:25;33.59;31.33;40.43;;
67300;Laerm;57658;51.436;5.980;2023-07-22T00:23:36;32.79;30.81;37.91;;
67300;Laerm;57658;51.436;5.980;2023-07-22T00:23:46;33.48;30.86;44.35;;
67300;Laerm;57658;51.436;5.980;2023-07-22T00:23:56;33.32;30.63;39.78;;
67300;Laerm;57658;51.436;5.980;2023-07-22T00:24:06;34.55;30.04;42.70;;
67300;Laerm;57658;51.436;5.980;2023-07-22T00:24:17;32.76;30.62;38.35;;
67300;Laerm;57658;51.436;5.980;2023-07-22T00:24:27;32.57;30.72;36.07;;
67300;Laerm;57658;51.436;5.980;2023-07-22T00:24:38;33.57;30.71;41.75;;
67300;Laerm;57658;51.436;5.980;2023-07-22T00:24:49;34.58;30.62;41.41;;
67300;Laerm;57658;51.436;5.980;2023-07-22T00:24:59;32.52;30.45;39.60;;
67300;Laerm;57658;51.436;5.980;2023-07-22T00:25:12;34.05;30.65;40.83;;
67300;Laerm;57658;51.436;5.980;2023-07-22T00:25:23;35.32;30.82;50.30;;
67300;Laerm;57658;51.436;5.980;2023-07-22T00:25:33;36.16;32.30;44.43;;
67300;Laerm;57658;51.436;5.980;2023-07-22T00:25:44;41.97;34.04;49.27;;
67300;Laerm;57658;51.436;5.980;2023-07-22T00:25:54;59.53;45.27;67.76;;
67300;Laerm;57658;51.436;5.980;2023-07-22T00:26:04;58.00;45.76;67.07;;
67300;Laerm;57658;51.436;5.980;2023-07-22T00:26:14;47.13;41.96;52.40;;
67300;Laerm;57658;51.436;5.980;2023-07-22T00:26:25;42.46;38.70;46.96;;
67300;Laerm;57658;51.436;5.980;2023-07-22T00:26:36;39.81;36.89;45.51;;
67300;Laerm;57658;51.436;5.980;2023-07-22T00:26:46;38.13;35.55;43.58;;
67300;Laerm;57658;51.436;5.980;2023-07-22T00:26:56;37.97;35.84;43.07;;
67300;Laerm;57658;51.436;5.980;2023-07-22T00:27:07;38.46;31.91;51.53;;
67300;Laerm;57658;51.436;5.980;2023-07-22T00:27:18;34.98;30.56;44.58;;
67300;Laerm;57658;51.436;5.980;2023-07-22T00:27:29;34.25;30.54;41.73;;
67300;Laerm;57658;51.436;5.980;2023-07-22T00:27:39;39.18;31.40;53.38;;
67300;Laerm;57658;51.436;5.980;2023-07-22T00:27:50;39.54;31.32;51.80;;
67300;Laerm;57658;51.436;5.980;2023-07-22T00:28:00;38.54;31.15;49.29;;
67300;Laerm;57658;51.436;5.980;2023-07-22T00:28:11;33.61;30.76;41.73;;
67300;Laerm;57658;51.436;5.980;2023-07-22T00:28:21;34.46;30.80;42.23;;
67300;Laerm;57658;51.436;5.980;2023-07-22T00:28:31;45.95;32.97;57.12;;
67300;Laerm;57658;51.436;5.980;2023-07-22T00:28:41;38.71;32.41;52.96;;
67300;Laerm;57658;51.436;5.980;2023-07-22T00:28:53;35.38;31.56;41.99;;
67300;Laerm;57658;51.436;5.980;2023-07-22T00:29:03;39.19;30.90;55.33;;
67300;Laerm;57658;51.436;5.980;2023-07-22T00:29:15;34.20;30.93;42.43;;
67300;Laerm;57658;51.436;5.980;2023-07-22T00:29:25;36.06;31.01;52.36;;
67300;Laerm;57658;51.436;5.980;2023-07-22T00:29:36;37.77;31.66;51.04;;
67300;Laerm;57658;51.436;5.980;2023-07-22T00:29:46;36.47;31.60;48.66;;
67300;Laerm;57658;51.436;5.980;2023-07-22T00:29:56;35.11;31.18;47.83;;
67300;Laerm;57658;51.436;5.980;2023-07-22T00:30:07;40.09;31.90;52.09;;
67300;Laerm;57658;51.436;5.980;2023-07-22T00:30:17;34.87;31.59;45.25;;
67300;Laerm;57658;51.436;5.980;2023-07-22T00:30:28;34.38;31.14;42.26;;
67300;Laerm;57658;51.436;5.980;2023-07-22T00:30:38;34.38;31.08;45.69;;
67300;Laerm;57658;51.436;5.980;2023-07-22T00:30:48;35.96;31.50;45.54;;
67300;Laerm;57658;51.436;5.980;2023-07-22T00:31:03;48.61;30.88;65.67;;
67300;Laerm;57658;51.436;5.980;2023-07-22T00:31:14;44.35;31.39;55.02;;
67300;Laerm;57658;51.436;5.980;2023-07-22T00:31:24;34.68;31.13;45.26;;
67300;Laerm;57658;51.436;5.980;2023-07-22T00:31:35;34.15;31.00;40.61;;
67300;Laerm;57658;51.436;5.980;2023-07-22T00:31:45;35.52;30.83;44.16;;
67300;Laerm;57658;51.436;5.980;2023-07-22T00:31:55;34.12;30.90;43.05;;
67300;Laerm;57658;51.436;5.980;2023-07-22T00:32:07;37.32;30.86;48.36;;
67300;Laerm;57658;51.436;5.980;2023-07-22T00:32:18;34.31;30.72;43.78;;
67300;Laerm;57658;51.436;5.980;2023-07-22T00:32:28;32.24;30.03;39.04;;
67300;Laerm;57658;51.436;5.980;2023-07-22T00:32:39;31.89;29.95;38.21;;
67300;Laerm;57658;51.436;5.980;2023-07-22T00:32:50;38.55;31.21;48.32;;
67300;Laerm;57658;51.436;5.980;2023-07-22T00:33:01;39.34;30.37;48.96;;
67300;Laerm;57658;51.436;5.980;2023-07-22T00:33:11;33.98;30.53;43.05;;
67300;Laerm;57658;51.436;5.980;2023-07-22T00:33:22;33.54;30.99;41.37;;
67300;Laerm;57658;51.436;5.980;2023-07-22T00:33:33;33.60;30.69;39.28;;
67300;Laerm;57658;51.436;5.980;2023-07-22T00:33:43;37.21;30.62;48.34;;
67300;Laerm;57658;51.436;5.980;2023-07-22T00:33:54;33.86;30.59;41.89;;
67300;Laerm;57658;51.436;5.980;2023-07-22T00:34:04;34.42;30.44;43.90;;
67300;Laerm;57658;51.436;5.980;2023-07-22T00:34:15;33.58;30.45;41.62;;
67300;Laerm;57658;51.436;5.980;2023-07-22T00:34:25;35.55;30.44;46.76;;
67300;Laerm;57658;51.436;5.980;2023-07-22T00:34:36;33.59;30.46;47.27;;
67300;Laerm;57658;51.436;5.980;2023-07-22T00:34:49;33.01;30.61;42.56;;
67300;Laerm;57658;51.436;5.980;2023-07-22T00:34:59;33.77;31.38;39.94;;
67300;Laerm;57658;51.436;5.980;2023-07-22T00:35:09;34.95;31.41;41.98;;
67300;Laerm;57658;51.436;5.980;2023-07-22T00:35:20;33.59;31.62;38.14;;
67300;Laerm;57658;51.436;5.980;2023-07-22T00:35:30;33.10;31.27;36.87;;
67300;Laerm;57658;51.436;5.980;2023-07-22T00:35:41;32.65;30.97;37.21;;
67300;Laerm;57658;51.436;5.980;2023-07-22T00:35:52;32.09;30.39;35.47;;
67300;Laerm;57658;51.436;5.980;2023-07-22T00:36:02;32.37;30.59;36.52;;
67300;Laerm;57658;51.436;5.980;2023-07-22T00:36:13;32.79;30.50;37.92;;
67300;Laerm;57658;51.436;5.980;2023-07-22T00:36:25;32.75;31.11;37.88;;
67300;Laerm;57658;51.436;5.980;2023-07-22T00:36:35;34.75;30.75;45.11;;
67300;Laerm;57658;51.436;5.980;2023-07-22T00:36:45;32.84;30.86;37.68;;
67300;Laerm;57658;51.436;5.980;2023-07-22T00:36:58;32.96;30.60;42.42;;
67300;Laerm;57658;51.436;5.980;2023-07-22T00:37:09;34.27;30.56;40.90;;
67300;Laerm;57658;51.436;5.980;2023-07-22T00:37:19;33.51;30.63;38.78;;
67300;Laerm;57658;51.436;5.980;2023-07-22T00:37:29;36.17;30.28;47.37;;
67300;Laerm;57658;51.436;5.980;2023-07-22T00:37:40;33.08;30.42;42.99;;
67300;Laerm;57658;51.436;5.980;2023-07-22T00:37:50;32.85;30.57;41.29;;
67300;Laerm;57658;51.436;5.980;2023-07-22T00:38:00;36.33;31.03;45.81;;
67300;Laerm;57658;51.436;5.980;2023-07-22T00:38:11;34.06;30.81;42.76;;
67300;Laerm;57658;51.436;5.980;2023-07-22T00:38:21;32.84;30.64;42.46;;
67300;Laerm;57658;51.436;5.980;2023-07-22T00:38:32;35.97;30.46;52.33;;
67300;Laerm;57658;51.436;5.980;2023-07-22T00:38:42;36.28;30.40;47.14;;
67300;Laerm;57658;51.436;5.980;2023-07-22T00:38:52;36.24;30.67;46.08;;
67300;Laerm;57658;51.436;5.980;2023-07-22T00:39:02;36.81;30.69;49.65;;
67300;Laerm;57658;51.436;5.980;2023-07-22T00:39:13;36.37;30.44;47.00;;
67300;Laerm;57658;51.436;5.980;2023-07-22T00:39:26;36.14;30.98;48.41;;
67300;Laerm;57658;51.436;5.980;2023-07-22T00:39:36;38.45;31.02;48.08;;
67300;Laerm;57658;51.436;5.980;2023-07-22T00:39:46;39.48;30.99;51.28;;
67300;Laerm;57658;51.436;5.980;2023-07-22T00:39:56;33.05;30.75;39.54;;
67300;Laerm;57658;51.436;5.980;2023-07-22T00:40:07;32.89;30.77;40.19;;
67300;Laerm;57658;51.436;5.980;2023-07-22T00:40:22;35.72;30.44;46.99;;
67300;Laerm;57658;51.436;5.980;2023-07-22T00:40:32;33.47;30.54;42.79;;
67300;Laerm;57658;51.436;5.980;2023-07-22T00:40:43;32.73;30.57;38.48;;
67300;Laerm;57658;51.436;5.980;2023-07-22T00:40:54;32.09;30.52;37.50;;
67300;Laerm;57658;51.436;5.980;2023-07-22T00:41:04;35.68;30.95;46.76;;
67300;Laerm;57658;51.436;5.980;2023-07-22T00:41:17;33.52;31.17;39.73;;
67300;Laerm;57658;51.436;5.980;2023-07-22T00:41:27;34.69;31.12;45.10;;
67300;Laerm;57658;51.436;5.980;2023-07-22T00:41:39;34.63;31.07;44.84;;
67300;Laerm;57658;51.436;5.980;2023-07-22T00:41:50;32.66;30.59;37.30;;
67300;Laerm;57658;51.436;5.980;2023-07-22T00:42:01;32.58;30.37;38.57;;
67300;Laerm;57658;51.436;5.980;2023-07-22T00:42:11;32.26;30.45;38.49;;
67300;Laerm;57658;51.436;5.980;2023-07-22T00:42:21;34.16;30.07;40.90;;
67300;Laerm;57658;51.436;5.980;2023-07-22T00:42:32;32.82;30.50;39.29;;
67300;Laerm;57658;51.436;5.980;2023-07-22T00:42:42;32.34;30.58;37.07;;
67300;Laerm;57658;51.436;5.980;2023-07-22T00:42:53;32.38;30.58;35.74;;
67300;Laerm;57658;51.436;5.980;2023-07-22T00:43:03;33.01;30.60;39.07;;
67300;Laerm;57658;51.436;5.980;2023-07-22T00:43:15;32.93;30.84;38.12;;
67300;Laerm;57658;51.436;5.980;2023-07-22T00:43:26;32.81;30.84;39.50;;
67300;Laerm;57658;51.436;5.980;2023-07-22T00:43:36;33.17;31.10;38.42;;
67300;Laerm;57658;51.436;5.980;2023-07-22T00:43:48;36.89;31.28;49.15;;
67300;Laerm;57658;51.436;5.980;2023-07-22T00:43:58;34.85;30.94;44.85;;
67300;Laerm;57658;51.436;5.980;2023-07-22T00:44:08;32.28;30.38;36.86;;
67300;Laerm;57658;51.436;5.980;2023-07-22T00:44:19;32.68;30.03;44.90;;
67300;Laerm;57658;51.436;5.980;2023-07-22T00:44:29;34.50;30.35;41.93;;
67300;Laerm;57658;51.436;5.980;2023-07-22T00:44:39;35.48;30.32;44.28;;
67300;Laerm;57658;51.436;5.980;2023-07-22T00:44:50;33.80;30.62;40.26;;
67300;Laerm;57658;51.436;5.980;2023-07-22T00:45:00;34.87;30.76;43.10;;
67300;Laerm;57658;51.436;5.980;2023-07-22T00:45:10;36.09;31.89;39.76;;
67300;Laerm;57658;51.436;5.980;2023-07-22T00:45:20;59.64;37.19;65.51;;
67300;Laerm;57658;51.436;5.980;2023-07-22T00:45:31;52.83;43.44;58.01;;
67300;Laerm;57658;51.436;5.980;2023-07-22T00:45:41;46.91;41.57;49.99;;
67300;Laerm;57658;51.436;5.980;2023-07-22T00:45:52;45.13;34.16;50.42;;
67300;Laerm;57658;51.436;5.980;2023-07-22T00:46:02;40.68;34.69;46.58;;
67300;Laerm;57658;51.436;5.980;2023-07-22T00:46:13;38.37;32.38;45.60;;
67300;Laerm;57658;51.436;5.980;2023-07-22T00:46:24;33.53;31.38;37.57;;
67300;Laerm;57658;51.436;5.980;2023-07-22T00:46:34;33.79;32.10;36.14;;
67300;Laerm;57658;51.436;5.980;2023-07-22T00:46:44;34.26;32.07;36.59;;
67300;Laerm;57658;51.436;5.980;2023-07-22T00:46:55;34.46;31.95;38.78;;
67300;Laerm;57658;51.436;5.980;2023-07-22T00:47:06;34.42;31.68;43.23;;
67300;Laerm;57658;51.436;5.980;2023-07-22T00:47:18;32.07;30.68;35.22;;
67300;Laerm;57658;51.436;5.980;2023-07-22T00:47:30;32.30;30.21;45.49;;
67300;Laerm;57658;51.436;5.980;2023-07-22T00:47:40;33.30;30.74;47.66;;
67300;Laerm;57658;51.436;5.980;2023-07-22T00:47:50;33.07;30.94;47.61;;
67300;Laerm;57658;51.436;5.980;2023-07-22T00:48:01;32.74;31.13;37.42;;
67300;Laerm;57658;51.436;5.980;2023-07-22T00:48:12;34.21;30.71;41.30;;
67300;Laerm;57658;51.436;5.980;2023-07-22T00:48:23;31.52;30.26;32.68;;
67300;Laerm;57658;51.436;5.980;2023-07-22T00:48:33;31.70;30.38;32.93;;
67300;Laerm;57658;51.436;5.980;2023-07-22T00:48:44;31.97;30.59;33.08;;
67300;Laerm;57658;51.436;5.980;2023-07-22T00:48:55;31.81;30.68;33.08;;
67300;Laerm;57658;51.436;5.980;2023-07-22T00:49:05;31.74;30.43;32.83;;
67300;Laerm;57658;51.436;5.980;2023-07-22T00:49:17;31.54;30.43;32.78;;
67300;Laerm;57658;51.436;5.980;2023-07-22T00:49:27;31.70;30.56;32.90;;
67300;Laerm;57658;51.436;5.980;2023-07-22T00:49:38;31.70;30.47;32.80;;
67300;Laerm;57658;51.436;5.980;2023-07-22T00:49:49;31.82;30.71;32.90;;
67300;Laerm;57658;51.436;5.980;2023-07-22T00:50:00;31.96;30.79;33.17;;
67300;Laerm;57658;51.436;5.980;2023-07-22T00:50:11;31.59;30.09;36.58;;
67300;Laerm;57658;51.436;5.980;2023-07-22T00:50:22;33.78;30.86;41.14;;
67300;Laerm;57658;51.436;5.980;2023-07-22T00:50:34;33.97;31.42;41.34;;
67300;Laerm;57658;51.436;5.980;2023-07-22T00:50:45;33.57;30.64;38.82;;
67300;Laerm;57658;51.436;5.980;2023-07-22T00:50:55;35.00;32.03;39.36;;
67300;Laerm;57658;51.436;5.980;2023-07-22T00:51:05;33.50;31.25;35.89;;
67300;Laerm;57658;51.436;5.980;2023-07-22T00:51:16;35.43;31.84;38.28;;
67300;Laerm;57658;51.436;5.980;2023-07-22T00:51:26;38.05;34.80;41.72;;
67300;Laerm;57658;51.436;5.980;2023-07-22T00:51:37;42.14;35.91;45.82;;
67300;Laerm;57658;51.436;5.980;2023-07-22T00:51:47;46.30;41.62;49.91;;
67300;Laerm;57658;51.436;5.980;2023-07-22T00:51:59;59.97;47.61;66.55;;
67300;Laerm;57658;51.436;5.980;2023-07-22T00:52:11;41.94;31.60;52.41;;
67300;Laerm;57658;51.436;5.980;2023-07-22T00:52:21;32.90;31.13;36.21;;
67300;Laerm;57658;51.436;5.980;2023-07-22T00:52:34;33.08;31.39;42.32;;
67300;Laerm;57658;51.436;5.980;2023-07-22T00:52:45;33.39;31.62;35.70;;
67300;Laerm;57658;51.436;5.980;2023-07-22T00:52:55;32.44;31.15;35.18;;
67300;Laerm;57658;51.436;5.980;2023-07-22T00:53:05;31.82;30.87;33.07;;
67300;Laerm;57658;51.436;5.980;2023-07-22T00:53:16;31.99;30.71;33.40;;
67300;Laerm;57658;51.436;5.980;2023-07-22T00:53:26;33.20;31.34;35.31;;
67300;Laerm;57658;51.436;5.980;2023-07-22T00:53:36;32.48;30.94;34.39;;
67300;Laerm;57658;51.436;5.980;2023-07-22T00:53:47;31.71;30.31;38.93;;
67300;Laerm;57658;51.436;5.980;2023-07-22T00:53:57;32.28;30.53;43.21;;
67300;Laerm;57658;51.436;5.980;2023-07-22T00:54:07;31.72;30.57;34.44;;
67300;Laerm;57658;51.436;5.980;2023-07-22T00:54:18;31.77;30.58;32.99;;
67300;Laerm;57658;51.436;5.980;2023-07-22T00:54:29;31.78;30.32;35.80;;
67300;Laerm;57658;51.436;5.980;2023-07-22T00:54:40;32.37;30.16;40.67;;
67300;Laerm;57658;51.436;5.980;2023-07-22T00:54:50;31.89;30.36;40.00;;
67300;Laerm;57658;51.436;5.980;2023-07-22T00:55:01;33.01;30.82;41.65;;
67300;Laerm;57658;51.436;5.980;2023-07-22T00:55:11;33.32;30.50;43.43;;
67300;Laerm;57658;51.436;5.980;2023-07-22T00:55:22;32.73;30.61;40.79;;
67300;Laerm;57658;51.436;5.980;2023-07-22T00:55:32;32.37;30.97;35.11;;
67300;Laerm;57658;51.436;5.980;2023-07-22T00:55:43;34.02;31.37;38.14;;
67300;Laerm;57658;51.436;5.980;2023-07-22T00:55:55;33.23;31.10;36.56;;
67300;Laerm;57658;51.436;5.980;2023-07-22T00:56:05;33.70;30.90;42.14;;
67300;Laerm;57658;51.436;5.980;2023-07-22T00:56:16;33.31;30.54;38.74;;
67300;Laerm;57658;51.436;5.980;2023-07-22T00:56:26;34.38;30.99;42.81;;
67300;Laerm;57658;51.436;5.980;2023-07-22T00:56:37;34.32;31.37;43.32;;
67300;Laerm;57658;51.436;5.980;2023-07-22T00:56:47;33.76;31.47;36.95;;
67300;Laerm;57658;51.436;5.980;2023-07-22T00:56:57;32.53;30.73;36.63;;
67300;Laerm;57658;51.436;5.980;2023-07-22T00:57:08;33.95;31.28;40.95;;
67300;Laerm;57658;51.436;5.980;2023-07-22T00:57:19;41.90;33.71;47.94;;
67300;Laerm;57658;51.436;5.980;2023-07-22T00:57:30;58.13;45.51;64.16;;
67300;Laerm;57658;51.436;5.980;2023-07-22T00:57:41;49.12;40.89;54.18;;
67300;Laerm;57658;51.436;5.980;2023-07-22T00:57:51;40.48;37.49;43.72;;
67300;Laerm;57658;51.436;5.980;2023-07-22T00:58:01;39.17;35.53;42.41;;
67300;Laerm;57658;51.436;5.980;2023-07-22T00:58:12;34.32;31.46;38.45;;
67300;Laerm;57658;51.436;5.980;2023-07-22T00:58:22;34.94;32.58;37.75;;
67300;Laerm;57658;51.436;5.980;2023-07-22T00:58:33;33.00;31.52;34.87;;
67300;Laerm;57658;51.436;5.980;2023-07-22T00:58:44;32.18;30.76;33.90;;
67300;Laerm;57658;51.436;5.980;2023-07-22T00:58:54;31.97;30.54;33.31;;
67300;Laerm;57658;51.436;5.980;2023-07-22T00:59:05;31.82;30.21;33.34;;
67300;Laerm;57658;51.436;5.980;2023-07-22T00:59:16;31.74;30.21;32.88;;
67300;Laerm;57658;51.436;5.980;2023-07-22T00:59:26;32.20;31.12;33.46;;
67300;Laerm;57658;51.436;5.980;2023-07-22T00:59:37;31.74;30.58;33.01;;
67300;Laerm;57658;51.436;5.980;2023-07-22T00:59:48;31.38;30.22;32.42;;
67300;Laerm;57658;51.436;5.980;2023-07-22T00:59:59;32.06;30.40;34.83;;
67300;Laerm;57658;51.436;5.980;2023-07-22T01:00:09;55.61;31.01;67.28;;
67300;Laerm;57658;51.436;5.980;2023-07-22T01:00:22;44.57;31.20;58.44;;